sensor_id;sensor_type;location;lat;lon;timestamp;P1;durP1;ratioP1;P2;durP2;ratioP2
4325;SDS011;58429;49.826;10.880;2023-03-21T00:00:43;7.3;;;2.7;;
4325;SDS011;58429;49.826;10.880;2023-03-21T00:01:43;7.3;;;2.7;;
4325;SDS011;58429;49.826;10.880;2023-03-21T00:02:43;7.8;;;2.5;;
4325;SDS011;58429;49.826;10.880;2023-03-21T00:03:43;7.8;;;2.5;;
4325;SDS011;58429;49.826;10.880;2023-03-21T00:04:43;7.8;;;2.5;;
4325;SDS011;58429;49.826;10.880;2023-03-21T00:05:43;8.6;;;2.6;;
4325;SDS011;58429;49.826;10.880;2023-03-21T00:06:43;8.6;;;2.6;;
4325;SDS011;58429;49.826;10.880;2023-03-21T00:07:43;8.6;;;2.6;;
4325;SDS011;58429;49.826;10.880;2023-03-21T00:08:43;8.3;;;2.6;;
4325;SDS011;58429;49.826;10.880;2023-03-21T00:09:43;8.3;;;2.6;;
4325;SDS011;58429;49.826;10.880;2023-03-21T00:10:43;8.3;;;2.6;;
4325;SDS011;58429;49.826;10.880;2023-03-21T00:11:43;8.8;;;2.8;;
4325;SDS011;58429;49.826;10.880;2023-03-21T00:12:43;8.8;;;2.8;;
4325;SDS011;58429;49.826;10.880;2023-03-21T00:13:43;8.8;;;2.8;;
4325;SDS011;58429;49.826;10.880;2023-03-21T00:14:43;7.4;;;2.7;;
4325;SDS011;58429;49.826;10.880;2023-03-21T00:15:43;7.4;;;2.7;;
4325;SDS011;58429;49.826;10.880;2023-03-21T00:16:43;7.4;;;2.7;;
4325;SDS011;58429;49.826;10.880;2023-03-21T00:17:43;7.8;;;2.9;;
4325;SDS011;58429;49.826;10.880;2023-03-21T00:18:44;7.8;;;2.9;;
4325;SDS011;58429;49.826;10.880;2023-03-21T00:19:43;7.8;;;2.9;;
4325;SDS011;58429;49.826;10.880;2023-03-21T00:20:43;7.7;;;2.8;;
4325;SDS011;58429;49.826;10.880;2023-03-21T00:21:43;7.7;;;2.8;;
4325;SDS011;58429;49.826;10.880;2023-03-21T00:22:43;7.7;;;2.8;;
4325;SDS011;58429;49.826;10.880;2023-03-21T00:23:43;8.6;;;2.8;;
4325;SDS011;58429;49.826;10.880;2023-03-21T00:24:43;8.6;;;2.8;;
4325;SDS011;58429;49.826;10.880;2023-03-21T00:25:43;8.6;;;2.8;;
4325;SDS011;58429;49.826;10.880;2023-03-21T00:26:43;8.3;;;3;;
4325;SDS011;58429;49.826;10.880;2023-03-21T00:27:43;8.3;;;3;;
4325;SDS011;58429;49.826;10.880;2023-03-21T00:28:43;8.3;;;3;;
4325;SDS011;58429;49.826;10.880;2023-03-21T00:29:43;7.7;;;2.6;;
4325;SDS011;58429;49.826;10.880;2023-03-21T00:30:43;7.7;;;2.6;;
4325;SDS011;58429;49.826;10.880;2023-03-21T00:31:43;7.7;;;2.6;;
4325;SDS011;58429;49.826;10.880;2023-03-21T00:32:44;6.6;;;2.8;;
4325;SDS011;58429;49.826;10.880;2023-03-21T00:33:43;6.6;;;2.8;;
4325;SDS011;58429;49.826;10.880;2023-03-21T00:34:43;6.6;;;2.8;;
4325;SDS011;58429;49.826;10.880;2023-03-21T00:35:43;6.6;;;2.8;;
4325;SDS011;58429;49.826;10.880;2023-03-21T00:36:43;8.1;;;2.7;;
4325;SDS011;58429;49.826;10.880;2023-03-21T00:37:43;8.1;;;2.7;;
4325;SDS011;58429;49.826;10.880;2023-03-21T00:38:43;8.1;;;2.7;;
4325;SDS011;58429;49.826;10.880;2023-03-21T00:39:43;7.2;;;2.6;;
4325;SDS011;58429;49.826;10.880;2023-03-21T00:40:43;7.2;;;2.6;;
4325;SDS011;58429;49.826;10.880;2023-03-21T00:41:43;7.2;;;2.6;;
4325;SDS011;58429;49.826;10.880;2023-03-21T00:42:43;7.8;;;2.6;;
4325;SDS011;58429;49.826;10.880;2023-03-21T00:43:43;7.8;;;2.6;;
4325;SDS011;58429;49.826;10.880;2023-03-21T00:44:43;7.8;;;2.6;;
4325;SDS011;58429;49.826;10.880;2023-03-21T00:45:43;7.8;;;2.9;;
4325;SDS011;58429;49.826;10.880;2023-03-21T00:46:43;7.8;;;2.9;;
4325;SDS011;58429;49.826;10.880;2023-03-21T00:47:43;7.8;;;2.9;;
4325;SDS011;58429;49.826;10.880;2023-03-21T00:48:43;7.6;;;2.6;;
4325;SDS011;58429;49.826;10.880;2023-03-21T00:49:43;7.6;;;2.6;;
4325;SDS011;58429;49.826;10.880;2023-03-21T00:50:43;7.6;;;2.6;;
4325;SDS011;58429;49.826;10.880;2023-03-21T00:51:43;6.6;;;2.5;;
4325;SDS011;58429;49.826;10.880;2023-03-21T00:52:43;6.6;;;2.5;;
4325;SDS011;58429;49.826;10.880;2023-03-21T00:53:43;6.6;;;2.5;;
4325;SDS011;58429;49.826;10.880;2023-03-21T00:54:43;7.3;;;2.2;;
4325;SDS011;58429;49.826;10.880;2023-03-21T00:55:43;7.3;;;2.2;;
4325;SDS011;58429;49.826;10.880;2023-03-21T00:56:43;7.3;;;2.2;;
4325;SDS011;58429;49.826;10.880;2023-03-21T00:57:43;7.8;;;2.5;;
4325;SDS011;58429;49.826;10.880;2023-03-21T00:58:43;7.8;;;2.5;;
4325;SDS011;58429;49.826;10.880;2023-03-21T00:59:43;7.8;;;2.5;;
4325;SDS011;58429;49.826;10.880;2023-03-21T01:00:43;6.9;;;2.3;;
4325;SDS011;58429;49.826;10.880;2023-03-21T01:01:43;6.9;;;2.3;;
4325;SDS011;58429;49.826;10.880;2023-03-21T01:02:43;6.9;;;2.3;;
4325;SDS011;58429;49.826;10.880;2023-03-21T01:03:43;7;;;2.3;;
4325;SDS011;58429;49.826;10.880;2023-03-21T01:04:43;7;;;2.3;;
4325;SDS011;58429;49.826;10.880;2023-03-21T01:05:44;7;;;2.3;;
4325;SDS011;58429;49.826;10.880;2023-03-21T01:06:43;7.4;;;2.4;;
4325;SDS011;58429;49.826;10.880;2023-03-21T01:07:43;7.4;;;2.4;;
4325;SDS011;58429;49.826;10.880;2023-03-21T01:08:44;7.4;;;2.4;;
4325;SDS011;58429;49.826;10.880;2023-03-21T01:09:43;8.2;;;2.2;;
4325;SDS011;58429;49.826;10.880;2023-03-21T01:10:44;8.2;;;2.2;;
4325;SDS011;58429;49.826;10.880;2023-03-21T01:11:43;8.2;;;2.2;;
4325;SDS011;58429;49.826;10.880;2023-03-21T01:12:43;6.7;;;2.1;;
4325;SDS011;58429;49.826;10.880;2023-03-21T01:13:43;6.7;;;2.1;;
4325;SDS011;58429;49.826;10.880;2023-03-21T01:14:43;6.7;;;2.1;;
4325;SDS011;58429;49.826;10.880;2023-03-21T01:15:44;6.4;;;1.9;;
4325;SDS011;58429;49.826;10.880;2023-03-21T01:16:43;6.4;;;1.9;;
4325;SDS011;58429;49.826;10.880;2023-03-21T01:17:43;6.4;;;1.9;;
4325;SDS011;58429;49.826;10.880;2023-03-21T01:18:43;7.8;;;2.4;;
4325;SDS011;58429;49.826;10.880;2023-03-21T01:19:43;7.8;;;2.4;;
4325;SDS011;58429;49.826;10.880;2023-03-21T01:20:43;7.8;;;2.4;;
4325;SDS011;58429;49.826;10.880;2023-03-21T01:21:43;6.3;;;2.1;;
4325;SDS011;58429;49.826;10.880;2023-03-21T01:22:43;6.3;;;2.1;;
4325;SDS011;58429;49.826;10.880;2023-03-21T01:23:43;6.3;;;2.1;;
4325;SDS011;58429;49.826;10.880;2023-03-21T01:24:43;6.9;;;2.4;;
4325;SDS011;58429;49.826;10.880;2023-03-21T01:25:43;6.9;;;2.4;;
4325;SDS011;58429;49.826;10.880;2023-03-21T01:26:43;6.9;;;2.4;;
4325;SDS011;58429;49.826;10.880;2023-03-21T01:27:43;7.3;;;2.2;;
4325;SDS011;58429;49.826;10.880;2023-03-21T01:28:43;7.3;;;2.2;;
4325;SDS011;58429;49.826;10.880;2023-03-21T01:29:43;7.3;;;2.2;;
4325;SDS011;58429;49.826;10.880;2023-03-21T01:30:44;8.2;;;2.3;;
4325;SDS011;58429;49.826;10.880;2023-03-21T01:31:43;8.2;;;2.3;;
4325;SDS011;58429;49.826;10.880;2023-03-21T01:32:43;8.2;;;2.3;;
4325;SDS011;58429;49.826;10.880;2023-03-21T01:33:43;7.4;;;2.2;;
4325;SDS011;58429;49.826;10.880;2023-03-21T01:34:43;7.4;;;2.2;;
4325;SDS011;58429;49.826;10.880;2023-03-21T01:35:43;7.4;;;2.2;;
4325;SDS011;58429;49.826;10.880;2023-03-21T01:36:43;6.4;;;2.3;;
4325;SDS011;58429;49.826;10.880;2023-03-21T01:37:43;6.4;;;2.3;;
4325;SDS011;58429;49.826;10.880;2023-03-21T01:38:43;6.4;;;2.3;;
4325;SDS011;58429;49.826;10.880;2023-03-21T01:39:43;7.7;;;2.3;;
4325;SDS011;58429;49.826;10.880;2023-03-21T01:40:43;7.7;;;2.3;;
4325;SDS011;58429;49.826;10.880;2023-03-21T01:41:43;7.7;;;2.3;;
4325;SDS011;58429;49.826;10.880;2023-03-21T01:42:43;8;;;2.7;;
4325;SDS011;58429;49.826;10.880;2023-03-21T01:43:43;8;;;2.7;;
4325;SDS011;58429;49.826;10.880;2023-03-21T01:44:52;8;;;2.7;;
4325;SDS011;58429;49.826;10.880;2023-03-21T01:46:19;7.2;;;2.3;;
4325;SDS011;58429;49.826;10.880;2023-03-21T01:46:43;7.2;;;2.3;;
4325;SDS011;58429;49.826;10.880;2023-03-21T01:47:43;7.2;;;2.3;;
4325;SDS011;58429;49.826;10.880;2023-03-21T01:48:43;9.7;;;2.4;;
4325;SDS011;58429;49.826;10.880;2023-03-21T01:49:43;9.7;;;2.4;;
4325;SDS011;58429;49.826;10.880;2023-03-21T01:50:43;9.7;;;2.4;;
4325;SDS011;58429;49.826;10.880;2023-03-21T01:51:44;6.6;;;2.2;;
4325;SDS011;58429;49.826;10.880;2023-03-21T01:52:43;6.6;;;2.2;;
4325;SDS011;58429;49.826;10.880;2023-03-21T01:53:43;6.6;;;2.2;;
4325;SDS011;58429;49.826;10.880;2023-03-21T01:54:43;7.3;;;2.4;;
4325;SDS011;58429;49.826;10.880;2023-03-21T01:55:43;7.3;;;2.4;;
4325;SDS011;58429;49.826;10.880;2023-03-21T01:56:43;7.3;;;2.4;;
4325;SDS011;58429;49.826;10.880;2023-03-21T01:57:44;7.5;;;2.4;;
4325;SDS011;58429;49.826;10.880;2023-03-21T01:58:43;7.5;;;2.4;;
4325;SDS011;58429;49.826;10.880;2023-03-21T01:59:44;7.5;;;2.4;;
4325;SDS011;58429;49.826;10.880;2023-03-21T02:00:43;6.8;;;2.4;;
4325;SDS011;58429;49.826;10.880;2023-03-21T02:01:43;6.8;;;2.4;;
4325;SDS011;58429;49.826;10.880;2023-03-21T02:02:44;6.8;;;2.4;;
4325;SDS011;58429;49.826;10.880;2023-03-21T02:03:44;7.6;;;2.4;;
4325;SDS011;58429;49.826;10.880;2023-03-21T02:04:43;7.6;;;2.4;;
4325;SDS011;58429;49.826;10.880;2023-03-21T02:05:47;7.6;;;2.4;;
4325;SDS011;58429;49.826;10.880;2023-03-21T02:06:45;7.1;;;2.4;;
4325;SDS011;58429;49.826;10.880;2023-03-21T02:07:43;7.1;;;2.4;;
4325;SDS011;58429;49.826;10.880;2023-03-21T02:08:43;7.1;;;2.4;;
4325;SDS011;58429;49.826;10.880;2023-03-21T02:09:44;9;;;2.4;;
4325;SDS011;58429;49.826;10.880;2023-03-21T02:10:44;9;;;2.4;;
4325;SDS011;58429;49.826;10.880;2023-03-21T02:11:43;9;;;2.4;;
4325;SDS011;58429;49.826;10.880;2023-03-21T02:12:43;7.8;;;2.6;;
4325;SDS011;58429;49.826;10.880;2023-03-21T02:13:43;7.8;;;2.6;;
4325;SDS011;58429;49.826;10.880;2023-03-21T02:14:43;7.8;;;2.6;;
4325;SDS011;58429;49.826;10.880;2023-03-21T02:15:44;7.2;;;2.5;;
4325;SDS011;58429;49.826;10.880;2023-03-21T02:16:46;7.2;;;2.5;;
4325;SDS011;58429;49.826;10.880;2023-03-21T02:17:44;7.2;;;2.5;;
4325;SDS011;58429;49.826;10.880;2023-03-21T02:18:44;8;;;2.6;;
4325;SDS011;58429;49.826;10.880;2023-03-21T02:20:19;8;;;2.6;;
4325;SDS011;58429;49.826;10.880;2023-03-21T02:20:51;8;;;2.6;;
4325;SDS011;58429;49.826;10.880;2023-03-21T02:21:55;8.6;;;2.5;;
4325;SDS011;58429;49.826;10.880;2023-03-21T02:23:01;8.6;;;2.5;;
4325;SDS011;58429;49.826;10.880;2023-03-21T02:23:48;8.6;;;2.5;;
4325;SDS011;58429;49.826;10.880;2023-03-21T02:24:55;8.6;;;2.5;;
4325;SDS011;58429;49.826;10.880;2023-03-21T02:26:36;8.2;;;2.8;;
4325;SDS011;58429;49.826;10.880;2023-03-21T02:26:54;8.2;;;2.8;;
4325;SDS011;58429;49.826;10.880;2023-03-21T02:27:44;8.2;;;2.8;;
4325;SDS011;58429;49.826;10.880;2023-03-21T02:28:44;8.8;;;3.3;;
4325;SDS011;58429;49.826;10.880;2023-03-21T02:29:50;8.8;;;3.3;;
4325;SDS011;58429;49.826;10.880;2023-03-21T02:30:48;8.8;;;3.3;;
4325;SDS011;58429;49.826;10.880;2023-03-21T02:31:45;7.8;;;3;;
4325;SDS011;58429;49.826;10.880;2023-03-21T02:32:50;7.8;;;3;;
4325;SDS011;58429;49.826;10.880;2023-03-21T02:34:02;7.8;;;3;;
4325;SDS011;58429;49.826;10.880;2023-03-21T02:34:46;8.1;;;2.8;;
4325;SDS011;58429;49.826;10.880;2023-03-21T02:35:46;8.1;;;2.8;;
4325;SDS011;58429;49.826;10.880;2023-03-21T02:36:46;8.1;;;2.8;;
4325;SDS011;58429;49.826;10.880;2023-03-21T02:37:44;8.8;;;3;;
4325;SDS011;58429;49.826;10.880;2023-03-21T02:38:45;8.8;;;3;;
4325;SDS011;58429;49.826;10.880;2023-03-21T02:39:49;8.8;;;3;;
4325;SDS011;58429;49.826;10.880;2023-03-21T02:40:44;6.8;;;2.5;;
4325;SDS011;58429;49.826;10.880;2023-03-21T02:41:45;6.8;;;2.5;;
4325;SDS011;58429;49.826;10.880;2023-03-21T02:42:46;6.8;;;2.5;;
4325;SDS011;58429;49.826;10.880;2023-03-21T02:43:43;7.1;;;2.6;;
4325;SDS011;58429;49.826;10.880;2023-03-21T02:44:43;7.1;;;2.6;;
4325;SDS011;58429;49.826;10.880;2023-03-21T02:45:44;7.1;;;2.6;;
4325;SDS011;58429;49.826;10.880;2023-03-21T02:46:44;9.1;;;2.4;;
4325;SDS011;58429;49.826;10.880;2023-03-21T02:47:43;9.1;;;2.4;;
4325;SDS011;58429;49.826;10.880;2023-03-21T02:48:44;9.1;;;2.4;;
4325;SDS011;58429;49.826;10.880;2023-03-21T02:49:44;7.8;;;2.3;;
4325;SDS011;58429;49.826;10.880;2023-03-21T02:50:44;7.8;;;2.3;;
4325;SDS011;58429;49.826;10.880;2023-03-21T02:51:43;7.8;;;2.3;;
4325;SDS011;58429;49.826;10.880;2023-03-21T02:52:44;8;;;2.7;;
4325;SDS011;58429;49.826;10.880;2023-03-21T02:53:44;8;;;2.7;;
4325;SDS011;58429;49.826;10.880;2023-03-21T02:54:43;8;;;2.7;;
4325;SDS011;58429;49.826;10.880;2023-03-21T02:55:43;7.3;;;2.5;;
4325;SDS011;58429;49.826;10.880;2023-03-21T02:56:43;7.3;;;2.5;;
4325;SDS011;58429;49.826;10.880;2023-03-21T02:57:43;7.3;;;2.5;;
4325;SDS011;58429;49.826;10.880;2023-03-21T02:58:43;8.7;;;2.9;;
4325;SDS011;58429;49.826;10.880;2023-03-21T02:59:43;8.7;;;2.9;;
4325;SDS011;58429;49.826;10.880;2023-03-21T03:00:43;8.7;;;2.9;;
4325;SDS011;58429;49.826;10.880;2023-03-21T03:01:43;6.8;;;2.4;;
4325;SDS011;58429;49.826;10.880;2023-03-21T03:02:43;6.8;;;2.4;;
4325;SDS011;58429;49.826;10.880;2023-03-21T03:03:43;6.8;;;2.4;;
4325;SDS011;58429;49.826;10.880;2023-03-21T03:04:43;7.7;;;2.6;;
4325;SDS011;58429;49.826;10.880;2023-03-21T03:05:44;7.7;;;2.6;;
4325;SDS011;58429;49.826;10.880;2023-03-21T03:06:44;7.7;;;2.6;;
4325;SDS011;58429;49.826;10.880;2023-03-21T03:07:46;8.4;;;2.6;;
4325;SDS011;58429;49.826;10.880;2023-03-21T03:08:46;8.4;;;2.6;;
4325;SDS011;58429;49.826;10.880;2023-03-21T03:09:48;8.4;;;2.6;;
4325;SDS011;58429;49.826;10.880;2023-03-21T03:10:46;8.3;;;2.4;;
4325;SDS011;58429;49.826;10.880;2023-03-21T03:11:43;8.3;;;2.4;;
4325;SDS011;58429;49.826;10.880;2023-03-21T03:12:44;8.3;;;2.4;;
4325;SDS011;58429;49.826;10.880;2023-03-21T03:13:49;8.4;;;2.6;;
4325;SDS011;58429;49.826;10.880;2023-03-21T03:14:45;8.4;;;2.6;;
4325;SDS011;58429;49.826;10.880;2023-03-21T03:15:46;8.4;;;2.6;;
4325;SDS011;58429;49.826;10.880;2023-03-21T03:16:44;7.9;;;2.4;;
4325;SDS011;58429;49.826;10.880;2023-03-21T03:17:46;7.9;;;2.4;;
4325;SDS011;58429;49.826;10.880;2023-03-21T03:18:46;7.9;;;2.4;;
4325;SDS011;58429;49.826;10.880;2023-03-21T03:19:44;8;;;2.8;;
4325;SDS011;58429;49.826;10.880;2023-03-21T03:20:44;8;;;2.8;;
4325;SDS011;58429;49.826;10.880;2023-03-21T03:21:45;8;;;2.8;;
4325;SDS011;58429;49.826;10.880;2023-03-21T03:22:46;8.5;;;2.5;;
4325;SDS011;58429;49.826;10.880;2023-03-21T03:23:44;8.5;;;2.5;;
4325;SDS011;58429;49.826;10.880;2023-03-21T03:24:44;8.5;;;2.5;;
4325;SDS011;58429;49.826;10.880;2023-03-21T03:25:44;7.7;;;2.5;;
4325;SDS011;58429;49.826;10.880;2023-03-21T03:26:44;7.7;;;2.5;;
4325;SDS011;58429;49.826;10.880;2023-03-21T03:27:43;7.7;;;2.5;;
4325;SDS011;58429;49.826;10.880;2023-03-21T03:28:44;7.6;;;2.5;;
4325;SDS011;58429;49.826;10.880;2023-03-21T03:29:43;7.6;;;2.5;;
4325;SDS011;58429;49.826;10.880;2023-03-21T03:30:44;7.6;;;2.5;;
4325;SDS011;58429;49.826;10.880;2023-03-21T03:31:45;8.1;;;2.7;;
4325;SDS011;58429;49.826;10.880;2023-03-21T03:32:44;8.1;;;2.7;;
4325;SDS011;58429;49.826;10.880;2023-03-21T03:33:45;8.1;;;2.7;;
4325;SDS011;58429;49.826;10.880;2023-03-21T03:34:44;6.6;;;2.7;;
4325;SDS011;58429;49.826;10.880;2023-03-21T03:35:43;6.6;;;2.7;;
4325;SDS011;58429;49.826;10.880;2023-03-21T03:36:44;6.6;;;2.7;;
4325;SDS011;58429;49.826;10.880;2023-03-21T03:37:44;8.2;;;2.7;;
4325;SDS011;58429;49.826;10.880;2023-03-21T03:38:43;8.2;;;2.7;;
4325;SDS011;58429;49.826;10.880;2023-03-21T03:39:44;8.2;;;2.7;;
4325;SDS011;58429;49.826;10.880;2023-03-21T03:40:44;8.5;;;3;;
4325;SDS011;58429;49.826;10.880;2023-03-21T03:41:44;8.5;;;3;;
4325;SDS011;58429;49.826;10.880;2023-03-21T03:42:44;8.5;;;3;;
4325;SDS011;58429;49.826;10.880;2023-03-21T03:43:44;8.5;;;2.7;;
4325;SDS011;58429;49.826;10.880;2023-03-21T03:44:43;8.5;;;2.7;;
4325;SDS011;58429;49.826;10.880;2023-03-21T03:45:45;8.5;;;2.7;;
4325;SDS011;58429;49.826;10.880;2023-03-21T03:46:44;7.6;;;2.5;;
4325;SDS011;58429;49.826;10.880;2023-03-21T03:47:44;7.6;;;2.5;;
4325;SDS011;58429;49.826;10.880;2023-03-21T03:48:45;7.6;;;2.5;;
4325;SDS011;58429;49.826;10.880;2023-03-21T03:49:45;8.2;;;2.7;;
4325;SDS011;58429;49.826;10.880;2023-03-21T03:50:44;8.2;;;2.7;;
4325;SDS011;58429;49.826;10.880;2023-03-21T03:51:46;8.2;;;2.7;;
4325;SDS011;58429;49.826;10.880;2023-03-21T03:52:44;8.7;;;2.8;;
4325;SDS011;58429;49.826;10.880;2023-03-21T03:53:43;8.7;;;2.8;;
4325;SDS011;58429;49.826;10.880;2023-03-21T03:54:44;8.7;;;2.8;;
4325;SDS011;58429;49.826;10.880;2023-03-21T03:55:43;7.5;;;2.9;;
4325;SDS011;58429;49.826;10.880;2023-03-21T03:56:43;7.5;;;2.9;;
4325;SDS011;58429;49.826;10.880;2023-03-21T03:57:43;7.5;;;2.9;;
4325;SDS011;58429;49.826;10.880;2023-03-21T03:58:43;7.4;;;3.1;;
4325;SDS011;58429;49.826;10.880;2023-03-21T03:59:44;7.4;;;3.1;;
4325;SDS011;58429;49.826;10.880;2023-03-21T04:00:43;7.4;;;3.1;;
4325;SDS011;58429;49.826;10.880;2023-03-21T04:01:43;8.4;;;3;;
4325;SDS011;58429;49.826;10.880;2023-03-21T04:02:43;8.4;;;3;;
4325;SDS011;58429;49.826;10.880;2023-03-21T04:03:44;8.4;;;3;;
4325;SDS011;58429;49.826;10.880;2023-03-21T04:04:43;9.5;;;2.8;;
4325;SDS011;58429;49.826;10.880;2023-03-21T04:05:43;9.5;;;2.8;;
4325;SDS011;58429;49.826;10.880;2023-03-21T04:06:43;9.5;;;2.8;;
4325;SDS011;58429;49.826;10.880;2023-03-21T04:07:43;7.4;;;2.8;;
4325;SDS011;58429;49.826;10.880;2023-03-21T04:08:43;7.4;;;2.8;;
4325;SDS011;58429;49.826;10.880;2023-03-21T04:09:43;7.4;;;2.8;;
4325;SDS011;58429;49.826;10.880;2023-03-21T04:10:43;7.2;;;2.6;;
4325;SDS011;58429;49.826;10.880;2023-03-21T04:11:43;7.2;;;2.6;;
4325;SDS011;58429;49.826;10.880;2023-03-21T04:12:43;7.2;;;2.6;;
4325;SDS011;58429;49.826;10.880;2023-03-21T04:13:43;8.8;;;3.3;;
4325;SDS011;58429;49.826;10.880;2023-03-21T04:14:43;8.8;;;3.3;;
4325;SDS011;58429;49.826;10.880;2023-03-21T04:15:43;8.8;;;3.3;;
4325;SDS011;58429;49.826;10.880;2023-03-21T04:16:43;8.8;;;3.3;;
4325;SDS011;58429;49.826;10.880;2023-03-21T04:17:43;8.2;;;2.8;;
4325;SDS011;58429;49.826;10.880;2023-03-21T04:18:43;8.2;;;2.8;;
4325;SDS011;58429;49.826;10.880;2023-03-21T04:19:43;8.2;;;2.8;;
4325;SDS011;58429;49.826;10.880;2023-03-21T04:20:43;9.4;;;3.7;;
4325;SDS011;58429;49.826;10.880;2023-03-21T04:21:44;9.4;;;3.7;;
4325;SDS011;58429;49.826;10.880;2023-03-21T04:22:43;9.4;;;3.7;;
4325;SDS011;58429;49.826;10.880;2023-03-21T04:23:43;9;;;2.8;;
4325;SDS011;58429;49.826;10.880;2023-03-21T04:24:43;9;;;2.8;;
4325;SDS011;58429;49.826;10.880;2023-03-21T04:25:43;9;;;2.8;;
4325;SDS011;58429;49.826;10.880;2023-03-21T04:26:43;9;;;3.2;;
4325;SDS011;58429;49.826;10.880;2023-03-21T04:27:44;9;;;3.2;;
4325;SDS011;58429;49.826;10.880;2023-03-21T04:28:43;9;;;3.2;;
4325;SDS011;58429;49.826;10.880;2023-03-21T04:29:43;8.2;;;3.1;;
4325;SDS011;58429;49.826;10.880;2023-03-21T04:30:43;8.2;;;3.1;;
4325;SDS011;58429;49.826;10.880;2023-03-21T04:31:43;8.2;;;3.1;;
4325;SDS011;58429;49.826;10.880;2023-03-21T04:32:43;8.9;;;3.2;;
4325;SDS011;58429;49.826;10.880;2023-03-21T04:33:43;8.9;;;3.2;;
4325;SDS011;58429;49.826;10.880;2023-03-21T04:34:43;8.9;;;3.2;;
4325;SDS011;58429;49.826;10.880;2023-03-21T04:35:43;7.8;;;2.7;;
4325;SDS011;58429;49.826;10.880;2023-03-21T04:36:43;7.8;;;2.7;;
4325;SDS011;58429;49.826;10.880;2023-03-21T04:37:43;7.8;;;2.7;;
4325;SDS011;58429;49.826;10.880;2023-03-21T04:38:43;8;;;2.8;;
4325;SDS011;58429;49.826;10.880;2023-03-21T04:39:43;8;;;2.8;;
4325;SDS011;58429;49.826;10.880;2023-03-21T04:40:43;8;;;2.8;;
4325;SDS011;58429;49.826;10.880;2023-03-21T04:41:44;7.2;;;2.7;;
4325;SDS011;58429;49.826;10.880;2023-03-21T04:42:43;7.2;;;2.7;;
4325;SDS011;58429;49.826;10.880;2023-03-21T04:43:44;7.2;;;2.7;;
4325;SDS011;58429;49.826;10.880;2023-03-21T04:44:43;7.4;;;2.6;;
4325;SDS011;58429;49.826;10.880;2023-03-21T04:45:43;7.4;;;2.6;;
4325;SDS011;58429;49.826;10.880;2023-03-21T04:46:43;7.4;;;2.6;;
4325;SDS011;58429;49.826;10.880;2023-03-21T04:47:43;7.9;;;2.7;;
4325;SDS011;58429;49.826;10.880;2023-03-21T04:48:43;7.9;;;2.7;;
4325;SDS011;58429;49.826;10.880;2023-03-21T04:49:43;7.9;;;2.7;;
4325;SDS011;58429;49.826;10.880;2023-03-21T04:50:43;8.8;;;3;;
4325;SDS011;58429;49.826;10.880;2023-03-21T04:51:43;8.8;;;3;;
4325;SDS011;58429;49.826;10.880;2023-03-21T04:52:43;8.8;;;3;;
4325;SDS011;58429;49.826;10.880;2023-03-21T04:53:43;10.4;;;3.1;;
4325;SDS011;58429;49.826;10.880;2023-03-21T04:54:43;10.4;;;3.1;;
4325;SDS011;58429;49.826;10.880;2023-03-21T04:55:43;10.4;;;3.1;;
4325;SDS011;58429;49.826;10.880;2023-03-21T04:56:43;9.9;;;3.8;;
4325;SDS011;58429;49.826;10.880;2023-03-21T04:57:43;9.9;;;3.8;;
4325;SDS011;58429;49.826;10.880;2023-03-21T04:58:43;9.9;;;3.8;;
4325;SDS011;58429;49.826;10.880;2023-03-21T04:59:44;8.9;;;3.5;;
4325;SDS011;58429;49.826;10.880;2023-03-21T05:00:43;8.9;;;3.5;;
4325;SDS011;58429;49.826;10.880;2023-03-21T05:01:44;8.9;;;3.5;;
4325;SDS011;58429;49.826;10.880;2023-03-21T05:02:43;10;;;3.7;;
4325;SDS011;58429;49.826;10.880;2023-03-21T05:03:43;10;;;3.7;;
4325;SDS011;58429;49.826;10.880;2023-03-21T05:04:43;10;;;3.7;;
4325;SDS011;58429;49.826;10.880;2023-03-21T05:05:44;9.3;;;3.5;;
4325;SDS011;58429;49.826;10.880;2023-03-21T05:06:44;9.3;;;3.5;;
4325;SDS011;58429;49.826;10.880;2023-03-21T05:07:43;9.3;;;3.5;;
4325;SDS011;58429;49.826;10.880;2023-03-21T05:08:43;9.8;;;3.5;;
4325;SDS011;58429;49.826;10.880;2023-03-21T05:09:44;9.8;;;3.5;;
4325;SDS011;58429;49.826;10.880;2023-03-21T05:10:44;9.8;;;3.5;;
4325;SDS011;58429;49.826;10.880;2023-03-21T05:11:44;9.7;;;3.7;;
4325;SDS011;58429;49.826;10.880;2023-03-21T05:12:43;9.7;;;3.7;;
4325;SDS011;58429;49.826;10.880;2023-03-21T05:13:44;9.7;;;3.7;;
4325;SDS011;58429;49.826;10.880;2023-03-21T05:14:44;8.5;;;3.4;;
4325;SDS011;58429;49.826;10.880;2023-03-21T05:15:44;8.5;;;3.4;;
4325;SDS011;58429;49.826;10.880;2023-03-21T05:16:44;8.5;;;3.4;;
4325;SDS011;58429;49.826;10.880;2023-03-21T05:17:44;11.4;;;3.3;;
4325;SDS011;58429;49.826;10.880;2023-03-21T05:18:44;11.4;;;3.3;;
4325;SDS011;58429;49.826;10.880;2023-03-21T05:19:43;11.4;;;3.3;;
4325;SDS011;58429;49.826;10.880;2023-03-21T05:20:43;9.5;;;3.3;;
4325;SDS011;58429;49.826;10.880;2023-03-21T05:21:43;9.5;;;3.3;;
4325;SDS011;58429;49.826;10.880;2023-03-21T05:22:44;9.5;;;3.3;;
4325;SDS011;58429;49.826;10.880;2023-03-21T05:23:44;8.6;;;3.3;;
4325;SDS011;58429;49.826;10.880;2023-03-21T05:24:44;8.6;;;3.3;;
4325;SDS011;58429;49.826;10.880;2023-03-21T05:25:43;8.6;;;3.3;;
4325;SDS011;58429;49.826;10.880;2023-03-21T05:26:44;10.2;;;3.6;;
4325;SDS011;58429;49.826;10.880;2023-03-21T05:27:44;10.2;;;3.6;;
4325;SDS011;58429;49.826;10.880;2023-03-21T05:28:43;10.2;;;3.6;;
4325;SDS011;58429;49.826;10.880;2023-03-21T05:29:43;8.4;;;3.2;;
4325;SDS011;58429;49.826;10.880;2023-03-21T05:30:44;8.4;;;3.2;;
4325;SDS011;58429;49.826;10.880;2023-03-21T05:31:44;8.4;;;3.2;;
4325;SDS011;58429;49.826;10.880;2023-03-21T05:32:44;9.5;;;3.2;;
4325;SDS011;58429;49.826;10.880;2023-03-21T05:33:44;9.5;;;3.2;;
4325;SDS011;58429;49.826;10.880;2023-03-21T05:34:44;9.5;;;3.2;;
4325;SDS011;58429;49.826;10.880;2023-03-21T05:35:44;9.1;;;3.5;;
4325;SDS011;58429;49.826;10.880;2023-03-21T05:36:44;9.1;;;3.5;;
4325;SDS011;58429;49.826;10.880;2023-03-21T05:37:44;9.1;;;3.5;;
4325;SDS011;58429;49.826;10.880;2023-03-21T05:38:44;9.6;;;3.6;;
4325;SDS011;58429;49.826;10.880;2023-03-21T05:39:44;9.6;;;3.6;;
4325;SDS011;58429;49.826;10.880;2023-03-21T05:40:45;9.6;;;3.6;;
4325;SDS011;58429;49.826;10.880;2023-03-21T05:41:44;9.4;;;3.4;;
4325;SDS011;58429;49.826;10.880;2023-03-21T05:42:44;9.4;;;3.4;;
4325;SDS011;58429;49.826;10.880;2023-03-21T05:43:44;9.4;;;3.4;;
4325;SDS011;58429;49.826;10.880;2023-03-21T05:44:44;12.7;;;4.2;;
4325;SDS011;58429;49.826;10.880;2023-03-21T05:45:44;12.7;;;4.2;;
4325;SDS011;58429;49.826;10.880;2023-03-21T05:46:44;12.7;;;4.2;;
4325;SDS011;58429;49.826;10.880;2023-03-21T05:47:44;10.1;;;3.9;;
4325;SDS011;58429;49.826;10.880;2023-03-21T05:48:44;10.1;;;3.9;;
4325;SDS011;58429;49.826;10.880;2023-03-21T05:49:44;10.1;;;3.9;;
4325;SDS011;58429;49.826;10.880;2023-03-21T05:50:44;10.1;;;3.9;;
4325;SDS011;58429;49.826;10.880;2023-03-21T05:51:44;10.1;;;3.9;;
4325;SDS011;58429;49.826;10.880;2023-03-21T05:52:44;10.1;;;3.9;;
4325;SDS011;58429;49.826;10.880;2023-03-21T05:53:44;18;;;10;;
4325;SDS011;58429;49.826;10.880;2023-03-21T05:54:44;18;;;10;;
4325;SDS011;58429;49.826;10.880;2023-03-21T05:55:44;18;;;10;;
4325;SDS011;58429;49.826;10.880;2023-03-21T05:56:44;14.4;;;7.2;;
4325;SDS011;58429;49.826;10.880;2023-03-21T05:57:44;14.4;;;7.2;;
4325;SDS011;58429;49.826;10.880;2023-03-21T05:58:44;14.4;;;7.2;;
4325;SDS011;58429;49.826;10.880;2023-03-21T05:59:44;11.9;;;5.1;;
4325;SDS011;58429;49.826;10.880;2023-03-21T06:00:44;11.9;;;5.1;;
4325;SDS011;58429;49.826;10.880;2023-03-21T06:01:44;11.9;;;5.1;;
4325;SDS011;58429;49.826;10.880;2023-03-21T06:02:44;9.3;;;3.4;;
4325;SDS011;58429;49.826;10.880;2023-03-21T06:03:44;9.3;;;3.4;;
4325;SDS011;58429;49.826;10.880;2023-03-21T06:04:44;9.3;;;3.4;;
4325;SDS011;58429;49.826;10.880;2023-03-21T06:05:44;9.3;;;3.4;;
4325;SDS011;58429;49.826;10.880;2023-03-21T06:06:44;11.3;;;4;;
4325;SDS011;58429;49.826;10.880;2023-03-21T06:07:44;11.3;;;4;;
4325;SDS011;58429;49.826;10.880;2023-03-21T06:08:44;11.3;;;4;;
4325;SDS011;58429;49.826;10.880;2023-03-21T06:09:44;10;;;4.1;;
4325;SDS011;58429;49.826;10.880;2023-03-21T06:10:44;10;;;4.1;;
4325;SDS011;58429;49.826;10.880;2023-03-21T06:11:45;10;;;4.1;;
4325;SDS011;58429;49.826;10.880;2023-03-21T06:12:44;10.2;;;3.8;;
4325;SDS011;58429;49.826;10.880;2023-03-21T06:13:44;10.2;;;3.8;;